Time;durP1;ratioP1;P1;durP2;ratioP2;P2;SDS_P1;SDS_P2;PMS_P1;PMS_P2;Temp;Humidity;BMP_temperature;BMP_pressure;BME280_temperature;BME280_humidity;BME280_pressure;Samples;Min_cycle;Max_cycle;Signal;HPM_P1;HPM_P2
2022/08/06 00:01:44;;;;;;;6.97;2.53;;;;;;;13.10;100.00;102478.03;4979629;28;20050;-68
2022/08/06 00:04:09;;;;;;;5.45;2.67;;;;;;;13.08;100.00;102469.16;4983900;28;20038;-68
2022/08/06 00:06:35;;;;;;;5.60;2.53;;;;;;;13.08;98.67;102476.34;4985845;28;20116;-69
2022/08/06 00:09:01;;;;;;;6.18;2.58;;;;;;;13.06;99.51;102468.38;4986587;28;20148;-67
2022/08/06 00:11:26;;;;;;;11.95;2.65;;;;;;;13.12;100.00;102468.09;4984285;28;20085;-71
2022/08/06 00:13:52;;;;;;;8.80;2.88;;;;;;;13.00;100.00;102479.38;4983922;28;20562;-68
2022/08/06 00:16:17;;;;;;;7.22;2.85;;;;;;;12.94;100.00;102479.66;4983275;28;20085;-69
2022/08/06 00:18:43;;;;;;;10.45;2.85;;;;;;;12.93;100.00;102484.16;4988845;28;20042;-67
2022/08/06 00:21:09;;;;;;;6.28;2.47;;;;;;;12.89;100.00;102484.38;4984152;28;20061;-67
2022/08/06 00:23:34;;;;;;;8.27;2.45;;;;;;;12.98;100.00;102488.44;4992351;28;20053;-68
2022/08/06 00:26:00;;;;;;;8.32;2.28;;;;;;;12.96;100.00;102489.38;4990996;28;20034;-66
2022/08/06 00:28:25;;;;;;;11.57;2.92;;;;;;;12.87;100.00;102499.66;4991191;28;20034;-68
2022/08/06 00:30:52;;;;;;;10.75;2.22;;;;;;;12.79;100.00;102488.41;4986124;28;20457;-68
2022/08/06 00:33:17;;;;;;;3.70;2.28;;;;;;;12.80;100.00;102491.03;4988737;28;20040;-67
2022/08/06 00:35:43;;;;;;;7.90;2.28;;;;;;;12.91;100.00;102493.22;4984133;28;20775;-66
2022/08/06 00:38:10;;;;;;;10.55;3.13;;;;;;;12.83;100.00;102490.00;4988347;28;20030;-69
2022/08/06 00:40:35;;;;;;;9.48;2.47;;;;;;;12.72;100.00;102497.69;4991880;28;20026;-68
2022/08/06 00:43:04;;;;;;;10.65;3.28;;;;;;;12.57;100.00;102500.09;4988784;28;20042;-67
2022/08/06 00:45:33;;;;;;;5.88;2.40;;;;;;;12.60;100.00;102504.44;4991403;28;20483;-69
2022/08/06 00:48:00;;;;;;;9.50;2.45;;;;;;;12.64;100.00;102508.72;4979647;28;20562;-67
2022/08/06 00:50:26;;;;;;;10.68;2.58;;;;;;;12.61;100.00;102506.19;4985451;28;20488;-69
2022/08/06 00:52:52;;;;;;;7.75;2.75;;;;;;;12.64;100.00;102511.41;4987745;28;20034;-69
2022/08/06 00:55:17;;;;;;;5.18;2.20;;;;;;;12.57;100.00;102510.81;4989086;28;20042;-68
2022/08/06 00:57:43;;;;;;;4.88;1.92;;;;;;;12.63;100.00;102513.19;4985985;28;20483;-67
2022/08/06 01:00:09;;;;;;;8.15;2.45;;;;;;;12.62;100.00;102513.28;4986692;28;20464;-67
2022/08/06 01:02:35;;;;;;;6.97;2.40;;;;;;;12.67;100.00;102513.94;4992559;28;20550;-67
2022/08/06 01:05:00;;;;;;;6.25;2.55;;;;;;;12.55;100.00;102528.75;4984232;28;20104;-68
2022/08/06 01:07:26;;;;;;;5.82;2.60;;;;;;;12.54;100.00;102528.81;4990623;28;20041;-67
2022/08/06 01:09:51;;;;;;;5.45;2.45;;;;;;;12.61;100.00;102531.16;4985110;28;20879;-68
2022/08/06 01:12:17;;;;;;;8.45;2.88;;;;;;;12.36;100.00;102525.16;4987970;28;20038;-68
2022/08/06 01:14:43;;;;;;;9.82;3.60;;;;;;;12.50;100.00;102530.78;4998093;28;20038;-68
2022/08/06 01:17:23;;;;;;;11.02;3.00;;;;;;;12.40;100.00;102542.81;4986168;28;20100;-67
2022/08/06 01:20:17;;;;;;;8.93;2.83;;;;;;;12.40;100.00;102537.47;4981720;28;20075;-66
2022/08/06 01:23:13;;;;;;;12.95;3.28;;;;;;;12.23;100.00;102539.97;4982784;28;20046;-66
2022/08/06 01:25:54;;;;;;;4.45;2.65;;;;;;;12.00;100.00;102547.19;4991081;28;20038;-69
2022/08/06 01:28:34;;;;;;;8.60;2.72;;;;;;;11.97;100.00;102552.66;4986136;28;20096;-67
2022/08/06 01:31:08;;;;;;;8.13;3.00;;;;;;;11.88;100.00;102553.03;4980694;28;20061;-67
2022/08/06 01:33:40;;;;;;;9.98;3.55;;;;;;;11.99;100.00;102547.22;4989317;28;20498;-68
2022/08/06 01:36:11;;;;;;;5.95;2.90;;;;;;;11.68;100.00;102546.66;4985352;28;20652;-67
2022/08/06 01:38:47;;;;;;;5.30;2.67;;;;;;;11.62;100.00;102546.91;4987779;28;20700;-68
2022/08/06 01:41:38;;;;;;;3.28;2.40;;;;;;;11.63;100.00;102547.78;4985926;28;20475;-69
2022/08/06 01:44:05;;;;;;;8.05;2.90;;;;;;;11.51;100.00;102558.97;4981704;28;20042;-67
2022/08/06 01:46:32;;;;;;;8.68;3.13;;;;;;;11.64;100.00;102560.22;4982493;28;20046;-68
2022/08/06 01:48:59;;;;;;;8.80;3.30;;;;;;;11.67;100.00;102558.28;4982949;28;20057;-66
2022/08/06 01:51:26;;;;;;;7.55;3.75;;;;;;;11.38;100.00;102561.25;4985554;28;20038;-66
2022/08/06 01:53:53;;;;;;;7.97;2.65;;;;;;;11.21;100.00;102563.72;4986165;28;20042;-68
2022/08/06 01:56:21;;;;;;;7.50;3.17;;;;;;;11.32;100.00;102562.34;4991523;28;20394;-68
2022/08/06 01:58:50;;;;;;;8.32;2.95;;;;;;;11.22;100.00;102565.44;4978001;28;20097;-70
2022/08/06 02:01:18;;;;;;;7.45;2.58;;;;;;;11.18;100.00;102564.69;4981163;28;20045;-66
2022/08/06 02:03:49;;;;;;;6.97;2.90;;;;;;;10.98;100.00;102569.91;4984159;28;20042;-69
2022/08/06 02:06:21;;;;;;;4.65;2.85;;;;;;;10.78;100.00;102559.97;4986892;28;20030;-68
2022/08/06 02:08:50;;;;;;;2.95;2.55;;;;;;;10.95;100.00;102568.25;4988301;28;20073;-67
2022/08/06 02:11:15;;;;;;;4.45;2.88;;;;;;;11.11;100.00;102561.38;4981662;28;20121;-69
2022/08/06 02:13:43;;;;;;;5.55;3.38;;;;;;;11.21;100.00;102558.38;4977118;28;20039;-67
2022/08/06 02:16:11;;;;;;;6.47;2.90;;;;;;;11.41;100.00;102563.81;4996555;28;20089;-69
2022/08/06 02:18:41;;;;;;;10.95;3.17;;;;;;;11.40;100.00;102565.63;4985597;28;20468;-70
2022/08/06 02:21:11;;;;;;;8.48;3.20;;;;;;;11.48;100.00;102564.44;4979391;28;20037;-66
2022/08/06 02:23:38;;;;;;;4.88;2.70;;;;;;;11.49;100.00;102572.38;4979157;28;20042;-69
2022/08/06 02:26:04;;;;;;;11.38;3.05;;;;;;;11.55;100.00;102569.50;4983729;28;20037;-66
2022/08/06 02:28:32;;;;;;;14.60;2.95;;;;;;;11.41;100.00;102571.81;4982206;28;20591;-67
2022/08/06 02:30:58;;;;;;;4.85;2.53;;;;;;;11.35;100.00;102572.06;4985179;28;20038;-67
2022/08/06 02:33:25;;;;;;;3.25;2.30;;;;;;;11.11;100.00;102576.53;4985144;28;20569;-68
2022/08/06 02:35:57;;;;;;;4.70;2.40;;;;;;;10.94;100.00;102584.28;4986589;28;20109;-68
2022/08/06 02:38:31;;;;;;;9.07;3.03;;;;;;;11.03;100.00;102583.97;4984318;28;20049;-71
2022/08/06 02:41:05;;;;;;;4.43;2.90;;;;;;;11.25;100.00;102581.38;4983083;28;20046;-69
2022/08/06 02:43:40;;;;;;;6.15;2.92;;;;;;;11.23;100.00;102580.53;4983238;28;20068;-68
2022/08/06 02:46:19;;;;;;;4.68;3.22;;;;;;;10.71;100.00;102580.69;4980793;28;20100;-70
2022/08/06 02:48:58;;;;;;;6.35;2.28;;;;;;;10.54;100.00;102577.72;4983260;28;20043;-69
2022/08/06 02:51:36;;;;;;;5.75;2.83;;;;;;;10.66;100.00;102585.31;4987298;28;20046;-68
2022/08/06 02:54:06;;;;;;;5.57;2.40;;;;;;;10.85;100.00;102580.19;4986716;28;20026;-69
2022/08/06 02:56:34;;;;;;;6.50;3.38;;;;;;;11.03;100.00;102587.50;4982000;28;20368;-68
2022/08/06 02:59:01;;;;;;;8.80;2.58;;;;;;;11.10;100.00;102577.47;4984190;28;20048;-66
2022/08/06 03:01:37;;;;;;;7.53;2.78;;;;;;;11.10;100.00;102581.03;4983174;28;20441;-68
2022/08/06 03:04:05;;;;;;;4.85;2.35;;;;;;;10.93;100.00;102594.09;4986355;28;20149;-70
2022/08/06 03:06:33;;;;;;;4.65;2.25;;;;;;;10.91;100.00;102593.31;4986574;28;20083;-67
2022/08/06 03:09:01;;;;;;;3.25;2.10;;;;;;;10.76;100.00;102592.06;4985895;28;20061;-68
2022/08/06 03:11:31;;;;;;;6.32;3.20;;;;;;;10.77;100.00;102590.25;4986158;28;20396;-69
2022/08/06 03:13:59;;;;;;;10.30;3.10;;;;;;;10.85;100.00;102585.53;4989333;28;20603;-69
2022/08/06 03:16:26;;;;;;;7.97;2.17;;;;;;;10.68;100.00;102588.78;4984266;28;20045;-69
2022/08/06 03:18:53;;;;;;;3.80;2.45;;;;;;;10.30;100.00;102584.81;4982235;28;20046;-68
2022/08/06 03:21:22;;;;;;;4.13;2.30;;;;;;;10.28;100.00;102594.63;4985878;28;20828;-69
2022/08/06 03:23:49;;;;;;;6.68;2.67;;;;;;;10.28;100.00;102602.63;4982737;28;20046;-69
2022/08/06 03:26:16;;;;;;;5.25;2.28;;;;;;;10.23;100.00;102592.09;4989028;28;20062;-69
2022/08/06 03:28:42;;;;;;;5.15;2.53;;;;;;;10.18;100.00;102595.84;4989025;28;20049;-70
2022/08/06 03:31:10;;;;;;;3.53;2.53;;;;;;;10.24;100.00;102600.97;4990049;28;20853;-70
2022/08/06 03:33:36;;;;;;;3.00;2.30;;;;;;;10.07;100.00;102605.06;4987759;28;20041;-69
2022/08/06 03:36:02;;;;;;;5.15;2.50;;;;;;;9.96;100.00;102601.00;4984405;28;20388;-68
2022/08/06 03:39:01;;;;;;;4.13;2.53;;;;;;;10.10;100.00;102604.97;4987738;28;20065;-68
2022/08/06 03:41:29;;;;;;;4.63;2.58;;;;;;;10.21;100.00;102606.41;4989933;28;20145;-69
2022/08/06 03:43:55;;;;;;;6.55;3.17;;;;;;;10.28;100.00;102606.16;4993090;28;20050;-68
2022/08/06 03:46:34;;;;;;;8.20;3.08;;;;;;;10.22;100.00;102611.69;4988421;28;20104;-69
2022/08/06 03:49:02;;;;;;;6.63;2.92;;;;;;;10.23;100.00;102612.53;4990475;28;20041;-66
2022/08/06 03:51:31;;;;;;;6.22;2.70;;;;;;;10.42;100.00;102613.69;4999290;28;20038;-69
2022/08/06 03:53:59;;;;;;;4.30;2.72;;;;;;;10.26;100.00;102616.03;5002818;28;20133;-70
2022/08/06 03:56:27;;;;;;;5.78;3.22;;;;;;;10.07;100.00;102615.72;4992308;28;20030;-69
2022/08/06 03:58:56;;;;;;;7.68;2.92;;;;;;;9.95;100.00;102618.81;4997369;28;20901;-69
2022/08/06 04:01:25;;;;;;;6.45;2.75;;;;;;;10.02;100.00;102622.13;4999762;28;20042;-70
2022/08/06 04:03:52;;;;;;;3.95;2.60;;;;;;;10.01;100.00;102623.94;4994497;28;20077;-68
2022/08/06 04:06:20;;;;;;;6.18;3.05;;;;;;;9.91;100.00;102627.81;4992236;28;20305;-69
2022/08/06 04:08:46;;;;;;;3.30;2.35;;;;;;;9.79;100.00;102629.06;4993977;28;20463;-69
2022/08/06 04:11:13;;;;;;;5.63;2.90;;;;;;;9.71;100.00;102620.44;4999325;28;20496;-70
2022/08/06 04:13:40;;;;;;;9.77;2.30;;;;;;;9.81;100.00;102623.69;4994444;28;20049;-69
2022/08/06 04:16:06;;;;;;;7.68;2.92;;;;;;;9.90;100.00;102628.72;4991204;28;20051;-68
2022/08/06 04:18:35;;;;;;;7.45;3.45;;;;;;;9.82;100.00;102636.09;4995801;28;20093;-70
2022/08/06 04:21:04;;;;;;;5.30;2.88;;;;;;;9.88;100.00;102635.88;4997059;28;20042;-67
2022/08/06 04:23:30;;;;;;;8.65;3.10;;;;;;;9.94;100.00;102643.72;4994397;28;20755;-68
2022/08/06 04:25:57;;;;;;;4.47;2.63;;;;;;;10.04;100.00;102639.81;4993319;28;20053;-67
2022/08/06 04:28:26;;;;;;;6.47;3.45;;;;;;;10.09;100.00;102640.56;5001749;28;20056;-67
2022/08/06 04:30:54;;;;;;;7.68;3.70;;;;;;;10.08;100.00;102636.13;4996300;28;20585;-68
2022/08/06 04:33:21;;;;;;;6.00;2.75;;;;;;;10.16;100.00;102635.00;4993500;28;20038;-67
2022/08/06 04:35:48;;;;;;;4.70;2.63;;;;;;;10.14;100.00;102629.75;4992329;28;20030;-68
2022/08/06 04:38:17;;;;;;;8.98;3.35;;;;;;;10.12;100.00;102637.78;4991032;28;20130;-66
2022/08/06 04:40:42;;;;;;;4.07;2.78;;;;;;;9.96;100.00;102641.84;4995366;28;20069;-68
2022/08/06 04:43:09;;;;;;;14.15;3.65;;;;;;;10.15;100.00;102646.59;5002303;28;20455;-69
2022/08/06 04:45:37;;;;;;;7.65;3.63;;;;;;;10.29;100.00;102645.25;4991206;28;20061;-66
2022/08/06 04:48:06;;;;;;;4.53;2.80;;;;;;;10.37;100.00;102645.84;4993995;28;20041;-68
2022/08/06 04:50:32;;;;;;;7.28;3.30;;;;;;;10.45;100.00;102650.94;4996174;28;20038;-67
2022/08/06 04:53:12;;;;;;;4.95;3.38;;;;;;;11.05;100.00;102652.41;4998558;28;20498;-67
2022/08/06 04:55:38;;;;;;;3.60;2.80;;;;;;;11.25;100.00;102662.34;4994475;28;20054;-67
2022/08/06 04:58:05;;;;;;;7.72;3.30;;;;;;;11.45;100.00;102664.28;4996530;28;20030;-68
2022/08/06 05:00:31;;;;;;;8.10;3.42;;;;;;;11.76;100.00;102655.06;4999791;28;20038;-68
2022/08/06 05:02:57;;;;;;;6.47;3.20;;;;;;;12.05;100.00;102657.50;4993083;28;20073;-66
2022/08/06 05:05:23;;;;;;;11.02;3.80;;;;;;;12.00;100.00;102661.25;5001058;28;20034;-67
2022/08/06 05:07:52;;;;;;;3.95;2.78;;;;;;;12.10;100.00;102660.84;4994996;28;20057;-68
2022/08/06 05:10:18;;;;;;;10.98;3.97;;;;;;;12.09;100.00;102668.91;4997756;28;20510;-68
2022/08/06 05:12:54;;;;;;;6.65;3.28;;;;;;;12.19;100.00;102668.47;4995060;28;20094;-68
2022/08/06 05:15:27;;;;;;;6.53;3.50;;;;;;;12.45;100.00;102666.56;4997651;28;20041;-69
2022/08/06 05:18:01;;;;;;;12.63;4.38;;;;;;;12.53;100.00;102666.22;5002929;28;20050;-68
2022/08/06 05:20:30;;;;;;;5.50;3.17;;;;;;;12.74;100.00;102672.47;4980103;28;20145;-69
2022/08/06 05:23:01;;;;;;;7.50;3.13;;;;;;;12.91;100.00;102677.97;4996905;28;20085;-65
2022/08/06 05:25:27;;;;;;;8.95;3.22;;;;;;;13.05;100.00;102678.25;5004030;28;20095;-69
2022/08/06 05:27:54;;;;;;;9.25;3.10;;;;;;;13.32;100.00;102678.84;4994487;28;20420;-69
2022/08/06 05:30:20;;;;;;;5.15;3.15;;;;;;;13.45;100.00;102677.34;5000443;28;20075;-69
2022/08/06 05:32:48;;;;;;;8.95;3.80;;;;;;;13.58;100.00;102676.75;4998906;28;20088;-68
2022/08/06 05:35:14;;;;;;;6.53;3.67;;;;;;;13.80;100.00;102677.47;5001223;28;20133;-67
2022/08/06 05:37:40;;;;;;;10.32;3.17;;;;;;;14.04;100.00;102669.19;5001681;28;20105;-66
2022/08/06 05:40:07;;;;;;;10.98;3.42;;;;;;;14.36;100.00;102679.25;4999535;28;20053;-66
2022/08/06 05:42:33;;;;;;;9.73;2.85;;;;;;;14.56;100.00;102678.28;4997211;28;20128;-68
2022/08/06 05:44:58;;;;;;;9.07;2.60;;;;;;;14.73;100.00;102675.56;4995082;28;20104;-68
2022/08/06 05:47:27;;;;;;;5.35;3.00;;;;;;;14.76;100.00;102679.94;4996604;28;20055;-70
2022/08/06 05:50:04;;;;;;;5.72;2.97;;;;;;;14.90;98.65;102687.25;5000407;28;20046;-68
2022/08/06 05:52:37;;;;;;;10.13;3.15;;;;;;;14.99;97.06;102693.03;5000025;28;20049;-68
2022/08/06 05:55:14;;;;;;;5.72;2.88;;;;;;;15.05;99.56;102689.13;4985429;28;20044;-68
2022/08/06 05:57:45;;;;;;;5.63;2.75;;;;;;;15.42;97.84;102693.44;4997644;28;20051;-67
2022/08/06 06:00:16;;;;;;;5.70;2.10;;;;;;;15.53;97.16;102695.53;4995578;28;20039;-67
2022/08/06 06:02:48;;;;;;;7.40;3.00;;;;;;;15.97;97.20;102698.50;4995647;28;20158;-67
2022/08/06 06:05:14;;;;;;;5.00;2.72;;;;;;;16.17;95.57;102693.81;4989335;28;20074;-69
2022/08/06 06:07:41;;;;;;;10.02;2.80;;;;;;;16.39;95.85;102690.72;4997315;28;20037;-69
2022/08/06 06:10:07;;;;;;;8.93;2.45;;;;;;;16.43;93.46;102686.91;4992878;28;20062;-71
2022/08/06 06:12:35;;;;;;;6.22;2.63;;;;;;;16.64;92.19;102693.72;4997970;28;20113;-67
2022/08/06 06:15:05;;;;;;;6.55;2.42;;;;;;;16.68;91.94;102695.28;4999427;28;20037;-69
2022/08/06 06:17:52;;;;;;;5.50;2.58;;;;;;;17.15;88.81;102698.78;5012963;28;20783;-69
2022/08/06 06:20:27;;;;;;;4.50;2.45;;;;;;;17.20;87.98;102694.81;4998822;28;20034;-72
2022/08/06 06:23:01;;;;;;;8.85;2.60;;;;;;;17.38;88.37;102694.66;4994817;28;20042;-69
2022/08/06 06:25:32;;;;;;;8.95;2.53;;;;;;;17.74;86.12;102692.34;4993150;28;20037;-68
2022/08/06 06:28:33;;;;;;;7.05;2.33;;;;;;;17.84;85.86;102701.59;4995350;28;20041;-69
2022/08/06 06:31:13;;;;;;;4.32;1.95;;;;;;;18.52;80.76;102689.91;4993192;28;20038;-67
2022/08/06 06:33:53;;;;;;;4.47;1.75;;;;;;;18.69;81.93;102701.44;4997478;28;20034;-68
2022/08/06 06:36:30;;;;;;;3.72;1.70;;;;;;;18.94;82.17;102701.50;5001544;28;20314;-69
2022/08/06 06:39:08;;;;;;;5.50;1.80;;;;;;;19.14;75.81;102708.22;4995513;28;20039;-70
2022/08/06 06:41:42;;;;;;;2.70;1.45;;;;;;;19.34;75.41;102704.97;4994507;28;20129;-68
2022/08/06 06:44:07;;;;;;;4.47;1.35;;;;;;;19.52;76.67;102705.50;4994143;28;20052;-68
2022/08/06 06:46:41;;;;;;;6.30;1.33;;;;;;;19.75;73.97;102705.72;4998021;28;20058;-68
2022/08/06 06:49:12;;;;;;;4.40;1.05;;;;;;;19.89;71.76;102694.78;5002278;28;20110;-70
2022/08/06 06:51:48;;;;;;;2.65;1.10;;;;;;;19.95;70.42;102691.59;4996434;28;20080;-68
2022/08/06 06:54:38;;;;;;;6.13;1.20;;;;;;;20.20;69.07;102687.06;4990559;28;20129;-68
2022/08/06 06:57:06;;;;;;;5.60;1.40;;;;;;;20.68;66.31;102687.94;5010941;28;20042;-69
2022/08/06 06:59:38;;;;;;;1.15;0.88;;;;;;;20.20;68.17;102689.78;4998908;28;20042;-69
2022/08/06 07:02:05;;;;;;;;;;;;;;;20.13;67.75;102697.47;4991020;28;20221;-70
2022/08/06 07:04:32;;;;;;;2.15;0.90;;;;;;;20.26;66.60;102695.59;4997434;28;20378;-70
2022/08/06 07:06:59;;;;;;;4.57;0.98;;;;;;;20.82;66.24;102695.88;4994988;28;20117;-68
2022/08/06 07:09:28;;;;;;;2.67;0.77;;;;;;;21.05;62.78;102693.22;4991388;28;20053;-69
2022/08/06 07:11:56;;;;;;;3.90;0.90;;;;;;;20.59;64.68;102692.22;4997900;28;20035;-70
2022/08/06 07:14:23;;;;;;;1.88;0.60;;;;;;;20.72;64.54;102692.13;4988780;28;20065;-69
2022/08/06 07:16:52;;;;;;;5.32;0.82;;;;;;;20.45;63.64;102692.38;4989538;28;20045;-70
2022/08/06 07:19:19;;;;;;;2.67;0.90;;;;;;;20.59;65.24;102696.78;4988056;28;20042;-69
2022/08/06 07:21:47;;;;;;;1.95;0.52;;;;;;;20.35;66.56;102700.34;4987508;28;20042;-67
2022/08/06 07:24:14;;;;;;;2.50;1.17;;;;;;;20.10;65.25;102701.31;4990177;28;20053;-66
2022/08/06 07:26:45;;;;;;;3.60;1.20;;;;;;;20.02;66.41;102700.13;4987279;28;20057;-67
2022/08/06 07:29:12;;;;;;;3.53;0.80;;;;;;;20.71;67.80;102701.25;4987090;28;20562;-69
2022/08/06 07:31:40;;;;;;;3.28;0.75;;;;;;;21.04;62.64;102705.94;4988175;28;20053;-67
2022/08/06 07:34:05;;;;;;;5.10;0.90;;;;;;;20.25;64.65;102715.56;4989118;28;20066;-67
2022/08/06 07:36:35;;;;;;;2.92;0.95;;;;;;;19.84;66.35;102719.47;4990108;28;20270;-69
2022/08/06 07:39:04;;;;;;;6.07;0.90;;;;;;;19.36;64.64;102718.41;4988668;28;20042;-69
2022/08/06 07:41:33;;;;;;;3.30;0.82;;;;;;;19.22;68.18;102723.91;4992025;28;20041;-66
2022/08/06 07:44:01;;;;;;;4.93;1.00;;;;;;;19.66;61.92;102729.78;4991924;28;20050;-70
2022/08/06 07:46:34;;;;;;;3.45;0.50;;;;;;;20.15;62.50;102719.94;4984537;28;20048;-68
2022/08/06 07:49:03;;;;;;;1.38;0.63;;;;;;;20.16;58.16;102719.81;4988744;28;20072;-68
2022/08/06 07:51:32;;;;;;;3.40;0.50;;;;;;;19.84;59.28;102729.44;4986725;28;20039;-68
2022/08/06 07:53:58;;;;;;;3.42;0.80;;;;;;;19.65;61.58;102729.88;4989355;28;20039;-69
2022/08/06 07:56:25;;;;;;;6.70;0.63;;;;;;;20.69;56.94;102717.66;4983437;28;20050;-69
2022/08/06 07:58:52;;;;;;;2.70;0.73;;;;;;;21.19;58.93;102720.16;4984864;28;21065;-69
2022/08/06 08:01:18;;;;;;;3.20;0.80;;;;;;;21.30;55.79;102719.28;4992524;28;20045;-69
2022/08/06 08:06:31;;;;;;;3.08;0.73;;;;;;;20.81;55.15;102721.25;4988395;28;20507;-70
2022/08/06 08:09:01;;;;;;;2.38;0.70;;;;;;;20.68;60.48;102729.50;4985922;28;20101;-68
2022/08/06 08:11:28;;;;;;;3.95;0.70;;;;;;;20.03;60.57;102734.34;4984956;28;20048;-69
2022/08/06 08:13:55;;;;;;;1.33;0.52;;;;;;;19.82;59.08;102736.78;5003187;28;20061;-69
2022/08/06 08:16:21;;;;;;;4.20;0.70;;;;;;;20.55;56.76;102730.53;4981482;28;20046;-69
2022/08/06 08:18:48;;;;;;;3.35;1.30;;;;;;;21.32;55.82;102728.19;4984933;28;20050;-67
2022/08/06 08:21:14;;;;;;;1.38;0.70;;;;;;;21.17;55.25;102725.66;4985709;28;20128;-69
2022/08/06 08:23:40;;;;;;;1.27;0.70;;;;;;;21.48;55.58;102731.41;4984169;28;20130;-67
2022/08/06 08:26:06;;;;;;;2.95;0.80;;;;;;;21.29;53.79;102728.44;4981935;28;20065;-69
2022/08/06 08:28:31;;;;;;;1.40;0.50;;;;;;;21.65;56.39;102738.25;4979060;28;20042;-69
2022/08/06 08:30:58;;;;;;;5.57;1.38;;;;;;;21.50;51.80;102728.59;4985496;28;20042;-69
2022/08/06 08:33:25;;;;;;;2.45;0.85;;;;;;;22.01;54.05;102731.66;4973233;28;20065;-69
2022/08/06 08:35:51;;;;;;;2.10;0.60;;;;;;;22.07;54.05;102738.44;4985632;28;20070;-69
2022/08/06 08:38:17;;;;;;;1.73;0.47;;;;;;;21.91;52.93;102736.13;4979775;28;20130;-68
2022/08/06 08:40:43;;;;;;;2.13;0.60;;;;;;;23.26;48.60;102722.94;4968365;28;20513;-68
2022/08/06 08:43:12;;;;;;;2.08;0.73;;;;;;;23.30;49.77;102729.84;4971699;28;20050;-68
2022/08/06 08:45:41;;;;;;;1.60;0.52;;;;;;;23.65;47.05;102729.47;4986809;28;20042;-68
2022/08/06 08:48:10;;;;;;;2.65;0.68;;;;;;;23.05;48.81;102736.56;4975372;28;20467;-69
2022/08/06 08:50:37;;;;;;;1.83;0.60;;;;;;;23.41;53.05;102729.75;4979682;28;20046;-68
2022/08/06 08:53:08;;;;;;;3.60;0.77;;;;;;;23.06;48.96;102738.28;4986335;28;20042;-69
2022/08/06 08:55:34;;;;;;;4.00;0.70;;;;;;;23.46;45.44;102734.81;4984612;28;20042;-68
2022/08/06 08:58:00;;;;;;;2.15;0.80;;;;;;;23.94;47.91;102737.75;4984539;28;20266;-67
2022/08/06 09:00:26;;;;;;;4.05;0.75;;;;;;;24.06;46.87;102730.34;4985606;28;20845;-69
2022/08/06 09:02:52;;;;;;;2.75;0.50;;;;;;;22.77;47.81;102735.28;4983643;28;20085;-68
2022/08/06 09:05:17;;;;;;;0.80;0.52;;;;;;;22.03;52.75;102745.97;4986513;28;20038;-68
2022/08/06 09:07:44;;;;;;;0.40;0.40;;;;;;;22.36;50.89;102745.09;4989717;28;20053;-68
2022/08/06 09:10:12;;;;;;;1.83;0.50;;;;;;;21.26;51.75;102753.94;4983589;28;20050;-69
2022/08/06 09:12:37;;;;;;;2.15;0.60;;;;;;;21.21;55.19;102756.16;4985571;28;20080;-68
2022/08/06 09:15:04;;;;;;;6.18;1.13;;;;;;;21.55;50.55;102748.97;4987431;28;20573;-67
2022/08/06 09:17:30;;;;;;;4.72;0.70;;;;;;;22.48;53.91;102746.78;4989118;28;20038;-67
2022/08/06 09:19:56;;;;;;;2.20;0.73;;;;;;;22.31;47.24;102749.19;4987428;28;20046;-68
2022/08/06 09:22:21;;;;;;;1.75;0.65;;;;;;;22.85;47.00;102738.25;4979948;28;20057;-69
2022/08/06 09:24:46;;;;;;;1.08;0.55;;;;;;;;;;4989023;28;20050;-68
2022/08/06 09:27:14;;;;;;;4.43;0.70;;;;;;;22.49;47.05;102748.53;4990217;28;20030;-68
2022/08/06 09:30:01;;;;;;;1.55;0.60;;;;;;;23.06;52.19;102740.13;4989274;28;20026;-66
2022/08/06 09:32:42;;;;;;;1.33;0.68;;;;;;;22.67;50.19;102742.50;4981791;28;20761;-69
2022/08/06 09:35:27;;;;;;;3.65;0.70;;;;;;;21.94;50.02;102749.47;4986796;28;20030;-68
2022/08/06 09:38:01;;;;;;;3.80;0.85;;;;;;;22.49;48.78;102744.91;4986830;28;20057;-67
2022/08/06 09:40:27;;;;;;;1.08;0.43;;;;;;;22.71;46.47;102742.13;4998965;28;20038;-68
2022/08/06 09:42:52;;;;;;;5.68;0.90;;;;;;;22.88;49.78;102738.00;4984450;28;20043;-67
2022/08/06 09:45:23;;;;;;;1.48;0.60;;;;;;;23.57;44.89;102744.75;5001819;28;20049;-67
2022/08/06 09:48:00;;;;;;;3.10;0.60;;;;;;;23.99;43.88;102740.06;4992259;28;20041;-69
2022/08/06 09:50:43;;;;;;;3.42;0.65;;;;;;;23.12;45.66;102745.91;4979880;28;20034;-68
2022/08/06 09:53:10;;;;;;;9.18;1.00;;;;;;;23.64;43.77;102740.50;4986843;28;20117;-68
2022/08/06 09:55:36;;;;;;;3.65;1.00;;;;;;;23.25;46.98;102748.44;4987879;28;20093;-68
2022/08/06 09:58:01;;;;;;;5.63;0.90;;;;;;;24.00;45.27;102747.25;4980939;28;20258;-68
2022/08/06 10:00:32;;;;;;;1.45;0.68;;;;;;;24.34;44.80;102747.75;4984449;28;20117;-68
2022/08/06 10:03:04;;;;;;;2.88;0.85;;;;;;;23.42;46.98;102753.25;4978728;28;20410;-69
2022/08/06 10:05:30;;;;;;;;;;;;;;;22.91;47.85;102747.75;4985294;28;20049;-68
2022/08/06 10:08:09;;;;;;;2.70;0.68;;;;;;;22.74;45.91;102747.31;4981366;28;19917;-68
2022/08/06 10:10:42;;;;;;;2.10;0.63;;;;;;;22.81;45.05;102752.22;4990154;28;20047;-69
2022/08/06 10:13:18;;;;;;;0.82;0.47;;;;;;;22.45;48.90;102752.47;4984964;28;20044;-67
2022/08/06 10:15:48;;;;;;;3.40;0.70;;;;;;;22.16;49.45;102748.59;4983083;28;20034;-67
2022/08/06 10:18:34;;;;;;;2.50;0.88;;;;;;;22.53;49.76;102745.53;4987513;28;20050;-69
2022/08/06 10:21:08;;;;;;;2.63;0.63;;;;;;;22.37;49.89;102748.66;4988293;28;20030;-68
2022/08/06 10:23:36;;;;;;;1.60;0.63;;;;;;;22.92;51.84;102741.31;4989976;28;20038;-68
2022/08/06 10:26:07;;;;;;;1.67;0.90;;;;;;;22.19;45.41;102742.91;4984805;28;20531;-68
2022/08/06 10:28:34;;;;;;;3.17;0.65;;;;;;;22.48;45.02;102740.47;4983862;28;20096;-68
2022/08/06 10:31:05;;;;;;;2.70;1.10;;;;;;;23.00;45.78;102734.22;4988273;28;20057;-66
2022/08/06 10:33:36;;;;;;;6.13;0.90;;;;;;;23.43;43.07;102732.34;4997254;28;20042;-68
2022/08/06 10:36:09;;;;;;;1.30;0.70;;;;;;;22.65;47.06;102737.22;4983857;28;20038;-68
2022/08/06 10:38:36;;;;;;;3.67;0.60;;;;;;;21.90;47.98;102742.56;4987476;28;20046;-68
2022/08/06 10:41:09;;;;;;;1.75;0.80;;;;;;;21.17;49.29;102741.94;4988732;28;20122;-69
2022/08/06 10:43:37;;;;;;;1.17;0.73;;;;;;;21.13;49.71;102742.31;4984717;28;20905;-68
2022/08/06 10:46:21;;;;;;;2.58;0.73;;;;;;;20.74;50.47;102736.28;4984713;28;20061;-71
2022/08/06 10:48:47;;;;;;;5.25;0.68;;;;;;;20.80;51.84;102734.94;4971646;28;20499;-66
2022/08/06 10:51:14;;;;;;;1.55;1.10;;;;;;;21.20;50.76;102735.44;4989684;28;20160;-68
2022/08/06 10:53:44;;;;;;;2.53;0.63;;;;;;;21.57;51.48;102724.41;4985716;28;20046;-68
2022/08/06 10:56:14;;;;;;;3.97;0.68;;;;;;;22.13;48.52;102727.97;4981442;28;20111;-68
2022/08/06 10:58:41;;;;;;;1.40;0.57;;;;;;;22.03;47.36;102731.53;4985636;28;20045;-68
2022/08/06 11:01:21;;;;;;;3.00;0.90;;;;;;;22.15;48.03;102727.84;4984849;28;20052;-67
2022/08/06 11:03:47;;;;;;;2.40;0.80;;;;;;;22.56;46.61;102718.94;4980680;28;20443;-68
2022/08/06 11:06:30;;;;;;;1.13;0.60;;;;;;;22.86;49.81;102712.75;4980870;28;20034;-69
2022/08/06 11:09:01;;;;;;;5.32;1.23;;;;;;;23.27;47.34;102722.78;4980579;28;20914;-69
2022/08/06 11:11:35;;;;;;;2.53;0.70;;;;;;;23.08;47.21;102716.38;4983453;28;20030;-69
2022/08/06 11:14:08;;;;;;;1.15;0.50;;;;;;;23.33;47.39;102724.09;4987089;28;20069;-69
2022/08/06 11:16:35;;;;;;;1.75;0.70;;;;;;;23.65;46.94;102715.88;4982945;28;20066;-69
2022/08/06 11:19:09;;;;;;;2.33;1.05;;;;;;;22.88;45.60;102712.59;4979395;28;20046;-69
2022/08/06 11:21:45;;;;;;;4.75;1.08;;;;;;;23.58;44.60;102711.06;4987640;28;20494;-68
2022/08/06 11:24:13;;;;;;;2.92;0.77;;;;;;;23.37;44.11;102719.25;4980810;28;20038;-67
2022/08/06 11:26:40;;;;;;;1.73;0.52;;;;;;;23.47;43.39;102715.59;4988948;28;20042;-69
2022/08/06 11:29:07;;;;;;;1.70;0.65;;;;;;;24.07;42.35;102707.53;4993270;28;20141;-69
2022/08/06 11:31:43;;;;;;;4.65;0.73;;;;;;;24.33;44.37;102709.72;4978946;28;20795;-69
2022/08/06 11:34:14;;;;;;;2.17;0.65;;;;;;;23.11;45.58;102716.97;4983557;28;20090;-68
2022/08/06 11:36:47;;;;;;;1.67;0.70;;;;;;;23.02;42.76;102714.19;4989065;28;20096;-68